createdAt,value
2023-05-06T00:02:56.532Z,100.00
2023-05-06T00:07:59.358Z,100.00
2023-05-06T00:13:03.620Z,100.00
2023-05-06T00:18:06.518Z,100.00
2023-05-06T00:23:09.047Z,100.00
2023-05-06T00:28:13.160Z,100.00
2023-05-06T00:33:15.697Z,100.00
2023-05-06T00:38:19.526Z,100.00
2023-05-06T00:43:23.409Z,100.00
2023-05-06T00:48:26.267Z,100.00
2023-05-06T00:53:29.321Z,100.00
2023-05-06T00:58:34.457Z,100.00
2023-05-06T01:03:38.006Z,100.00
2023-05-06T01:08:58.475Z,100.00
2023-05-06T01:14:12.608Z,100.00
2023-05-06T01:19:29.179Z,100.00
2023-05-06T01:24:43.049Z,100.00
2023-05-06T01:29:48.107Z,100.00
2023-05-06T01:34:56.831Z,100.00
2023-05-06T01:40:04.118Z,100.00
2023-05-06T01:45:10.869Z,100.00
2023-05-06T01:50:14.007Z,100.00
2023-05-06T01:55:17.962Z,100.00
2023-05-06T02:00:20.509Z,100.00
2023-05-06T02:05:23.075Z,100.00
2023-05-06T02:10:31.831Z,100.00
2023-05-06T02:15:38.452Z,100.00
2023-05-06T02:20:42.780Z,100.00
2023-05-06T02:25:52.441Z,100.00
2023-05-06T02:30:58.656Z,100.00
2023-05-06T02:36:01.207Z,100.00
2023-05-06T02:41:05.136Z,100.00
2023-05-06T02:46:08.286Z,100.00
2023-05-06T02:51:10.906Z,100.00
2023-05-06T02:56:14.895Z,100.00
2023-05-06T03:01:17.473Z,100.00
2023-05-06T03:06:20.049Z,100.00
2023-05-06T03:11:24.102Z,100.00
2023-05-06T03:16:27.457Z,100.00
2023-05-06T03:21:33.845Z,100.00
2023-05-06T03:26:37.850Z,100.00
2023-05-06T03:31:41.820Z,100.00
2023-05-06T03:36:44.722Z,100.00
2023-05-06T03:41:49.120Z,100.00
2023-05-06T03:46:53.554Z,100.00
2023-05-06T03:51:56.405Z,100.00
2023-05-06T03:57:02.421Z,100.00
2023-05-06T04:02:06.414Z,100.00
2023-05-06T04:07:12.319Z,100.00
2023-05-06T04:12:16.318Z,100.00
2023-05-06T04:17:39.002Z,100.00
2023-05-06T04:23:02.648Z,100.00
2023-05-06T04:28:27.009Z,100.00
2023-05-06T04:33:50.203Z,100.00
2023-05-06T04:39:18.030Z,100.00
2023-05-06T04:44:43.528Z,100.00
2023-05-06T04:50:07.400Z,100.00
2023-05-06T04:55:30.057Z,100.00
2023-05-06T05:00:54.394Z,100.00
2023-05-06T05:05:57.145Z,100.00
2023-05-06T05:11:02.295Z,100.00
2023-05-06T05:16:08.298Z,100.00
2023-05-06T05:21:13.917Z,100.00
2023-05-06T05:26:16.873Z,100.00
2023-05-06T05:31:23.582Z,100.00
2023-05-06T05:36:27.593Z,100.00
2023-05-06T05:41:32.376Z,100.00
2023-05-06T05:46:36.876Z,100.00
2023-05-06T05:51:40.939Z,100.00
2023-05-06T05:56:44.933Z,100.00
2023-05-06T06:01:48.968Z,100.00
2023-05-06T06:06:51.654Z,100.00
2023-05-06T06:11:55.067Z,100.00
2023-05-06T06:16:59.556Z,100.00
2023-05-06T06:22:02.222Z,100.00
2023-05-06T06:27:08.273Z,100.00
2023-05-06T06:32:12.843Z,100.00
2023-05-06T06:37:15.545Z,100.00
2023-05-06T06:42:18.489Z,100.00
2023-05-06T06:47:35.524Z,100.00
2023-05-06T06:52:38.236Z,100.00
2023-05-06T06:57:41.296Z,100.00
2023-05-06T07:02:47.974Z,100.00
2023-05-06T07:07:50.633Z,100.00
2023-05-06T07:12:54.030Z,100.00
2023-05-06T07:17:58.102Z,100.00
2023-05-06T07:23:01.011Z,100.00
2023-05-06T07:28:03.767Z,100.00
2023-05-06T07:33:08.292Z,100.00
2023-05-06T07:38:10.905Z,100.00
2023-05-06T07:43:13.484Z,100.00
2023-05-06T07:48:19.955Z,100.00
2023-05-06T07:53:22.919Z,100.00
2023-05-06T07:58:25.781Z,100.00
2023-05-06T08:03:30.985Z,100.00
2023-05-06T08:08:33.960Z,100.00
2023-05-06T08:13:36.554Z,100.00
2023-05-06T08:18:40.440Z,100.00
2023-05-06T08:23:42.996Z,100.00
2023-05-06T08:28:45.580Z,100.00
2023-05-06T08:33:49.604Z,100.00
2023-05-06T08:38:52.171Z,100.00
2023-05-06T08:43:55.751Z,100.00
2023-05-06T08:49:00.035Z,100.00
2023-05-06T08:54:03.547Z,100.00
2023-05-06T08:59:09.030Z,100.00
2023-05-06T09:04:14.075Z,100.00
2023-05-06T09:09:17.181Z,100.00
2023-05-06T09:14:21.618Z,100.00
2023-05-06T09:19:25.628Z,100.00
2023-05-06T09:24:28.257Z,100.00
2023-05-06T09:29:30.832Z,100.00
2023-05-06T09:34:35.564Z,100.00
2023-05-06T09:39:38.111Z,100.00
2023-05-06T09:44:40.748Z,100.00
2023-05-06T09:49:44.668Z,100.00
2023-05-06T09:54:48.353Z,100.00
2023-05-06T09:59:51.999Z,100.00
2023-05-06T10:04:57.700Z,100.00
2023-05-06T10:10:01.488Z,100.00
2023-05-06T10:15:05.175Z,100.00
2023-05-06T10:20:13.589Z,100.00
2023-05-06T10:25:24.176Z,100.00
2023-05-06T10:30:28.322Z,100.00
2023-05-06T10:35:43.341Z,100.00
2023-05-06T10:40:47.467Z,100.00
2023-05-06T10:46:06.081Z,100.00
2023-05-06T10:51:29.474Z,100.00
2023-05-06T10:56:33.834Z,100.00
2023-05-06T11:01:38.581Z,100.00
2023-05-06T11:06:46.322Z,100.00
2023-05-06T11:11:51.256Z,98.98
2023-05-06T11:16:55.046Z,94.14
2023-05-06T11:22:01.024Z,94.50
2023-05-06T11:27:03.706Z,98.28
2023-05-06T11:32:19.383Z,94.86
2023-05-06T11:37:28.116Z,93.09
2023-05-06T11:42:31.042Z,91.17
2023-05-06T11:47:33.678Z,88.81
2023-05-06T11:52:37.935Z,87.56
2023-05-06T11:57:46.110Z,85.60
2023-05-06T12:02:48.704Z,84.64
2023-05-06T12:07:52.894Z,85.90
2023-05-06T12:12:56.520Z,87.44
2023-05-06T12:18:02.148Z,84.65
2023-05-06T12:23:11.297Z,85.52
2023-05-06T12:28:17.450Z,80.46
2023-05-06T12:33:20.058Z,79.47
2023-05-06T12:38:23.916Z,80.68
2023-05-06T12:43:31.254Z,81.36
2023-05-06T12:48:33.938Z,85.35
2023-05-06T12:53:37.869Z,83.51
2023-05-06T12:58:40.506Z,78.00
2023-05-06T13:03:43.119Z,80.62
2023-05-06T13:08:47.076Z,78.77
2023-05-06T13:13:49.711Z,80.24
2023-05-06T13:18:52.621Z,79.04
2023-05-06T13:23:56.951Z,76.51
2023-05-06T13:28:59.763Z,76.80
2023-05-06T13:34:02.390Z,79.10
2023-05-06T13:39:06.452Z,77.39
2023-05-06T13:44:10.266Z,71.54
2023-05-06T13:49:13.862Z,74.79
2023-05-06T13:54:18.161Z,71.52
2023-05-06T13:59:20.817Z,72.57
2023-05-06T14:04:23.912Z,74.29
2023-05-06T14:09:27.969Z,75.03
2023-05-06T14:14:30.562Z,74.29
2023-05-06T14:19:33.651Z,76.68
2023-05-06T14:24:37.689Z,76.75
2023-05-06T14:29:42.966Z,78.63
2023-05-06T14:34:45.566Z,77.94
2023-05-06T14:39:49.666Z,77.66
2023-05-06T14:44:52.213Z,78.65
2023-05-06T14:49:54.854Z,79.83
2023-05-06T14:54:59.051Z,79.71
2023-05-06T15:00:03.157Z,79.11
2023-05-06T15:05:07.203Z,77.69
2023-05-06T15:10:11.834Z,78.85
2023-05-06T15:15:14.518Z,80.08
2023-05-06T15:20:17.333Z,80.81
2023-05-06T15:25:34.358Z,81.64
2023-05-06T15:30:38.442Z,93.81
2023-05-06T15:35:41.044Z,97.25
2023-05-06T15:40:50.974Z,100.00
2023-05-06T15:45:53.663Z,100.00
2023-05-06T15:50:56.254Z,100.00
2023-05-06T15:56:13.277Z,100.00
2023-05-06T16:01:31.556Z,100.00
2023-05-06T16:06:44.075Z,100.00
2023-05-06T16:11:48.104Z,100.00
2023-05-06T16:16:50.716Z,100.00
2023-05-06T16:21:54.345Z,100.00
2023-05-06T16:26:58.347Z,100.00
2023-05-06T16:32:01.217Z,100.00
2023-05-06T16:37:03.834Z,100.00
2023-05-06T16:42:08.270Z,100.00
2023-05-06T16:47:13.599Z,100.00
2023-05-06T16:52:17.809Z,100.00
2023-05-06T16:57:21.772Z,100.00
2023-05-06T17:02:24.389Z,100.00
2023-05-06T17:07:26.981Z,100.00
2023-05-06T17:12:30.895Z,100.00
2023-05-06T17:17:33.507Z,100.00
2023-05-06T17:22:36.194Z,100.00
2023-05-06T17:27:40.098Z,100.00
2023-05-06T17:32:42.969Z,100.00
2023-05-06T17:37:46.233Z,100.00
2023-05-06T17:42:50.125Z,100.00
2023-05-06T17:47:52.773Z,100.00
2023-05-06T17:52:55.391Z,100.00
2023-05-06T17:57:59.547Z,100.00
2023-05-06T18:03:02.184Z,100.00
2023-05-06T18:08:06.576Z,100.00
2023-05-06T18:13:10.584Z,100.00
2023-05-06T18:18:13.227Z,100.00
2023-05-06T18:23:15.820Z,100.00
2023-05-06T18:28:19.866Z,100.00
2023-05-06T18:33:22.678Z,100.00
2023-05-06T18:38:26.414Z,100.00
2023-05-06T18:43:31.159Z,100.00
2023-05-06T18:48:33.764Z,100.00
2023-05-06T18:53:36.438Z,100.00
2023-05-06T18:58:41.977Z,100.00
2023-05-06T19:03:44.829Z,100.00
2023-05-06T19:08:47.579Z,100.00
2023-05-06T19:13:52.795Z,100.00
2023-05-06T19:18:55.501Z,100.00
2023-05-06T19:23:59.711Z,100.00
2023-05-06T19:29:03.605Z,100.00
2023-05-06T19:34:06.188Z,100.00
2023-05-06T19:39:09.143Z,100.00
2023-05-06T19:44:13.041Z,100.00
2023-05-06T19:49:15.580Z,100.00
2023-05-06T19:54:19.778Z,100.00
2023-05-06T19:59:23.742Z,100.00
2023-05-06T20:04:26.301Z,100.00
2023-05-06T20:09:28.854Z,100.00
2023-05-06T20:14:33.289Z,100.00
2023-05-06T20:19:35.839Z,100.00
2023-05-06T20:24:38.792Z,100.00
2023-05-06T20:29:42.746Z,100.00
2023-05-06T20:34:47.108Z,100.00
2023-05-06T20:39:49.712Z,100.00
2023-05-06T20:44:53.892Z,100.00
2023-05-06T20:49:56.642Z,100.00
2023-05-06T20:54:59.281Z,100.00
2023-05-06T21:00:03.865Z,100.00
2023-05-06T21:05:07.267Z,100.00
2023-05-06T21:10:11.701Z,100.00
2023-05-06T21:15:15.953Z,100.00
2023-05-06T21:20:19.330Z,100.00
2023-05-06T21:25:22.115Z,100.00
2023-05-06T21:30:26.258Z,100.00
2023-05-06T21:35:30.482Z,100.00
2023-05-06T21:40:33.224Z,100.00
2023-05-06T21:45:37.540Z,100.00
2023-05-06T21:50:40.187Z,100.00
2023-05-06T21:55:42.761Z,100.00
2023-05-06T22:00:46.842Z,100.00
2023-05-06T22:05:50.331Z,100.00
2023-05-06T22:10:53.608Z,100.00
2023-05-06T22:15:57.700Z,100.00
2023-05-06T22:21:00.410Z,100.00
2023-05-06T22:26:03.076Z,100.00
2023-05-06T22:31:07.265Z,100.00
2023-05-06T22:36:09.996Z,100.00
2023-05-06T22:41:12.574Z,100.00
2023-05-06T22:46:17.865Z,100.00
2023-05-06T22:51:20.996Z,100.00
2023-05-06T22:56:23.808Z,100.00
2023-05-06T23:01:31.825Z,100.00
2023-05-06T23:06:34.706Z,100.00
2023-05-06T23:11:37.255Z,100.00
2023-05-06T23:16:41.873Z,100.00
2023-05-06T23:21:44.715Z,100.00
2023-05-06T23:26:47.328Z,100.00
2023-05-06T23:31:51.237Z,100.00
2023-05-06T23:36:54.198Z,100.00
2023-05-06T23:42:00.337Z,100.00
2023-05-06T23:47:04.304Z,100.00
2023-05-06T23:52:06.864Z,100.00
2023-05-06T23:57:09.425Z,100.00
